sensor_id;sensor_type;location;lat;lon;timestamp;P1;durP1;ratioP1;P2;durP2;ratioP2
27013;SDS011;14556;52.222;4.510;2022-11-20T00:01:18;11.67;;;6.93;;
27013;SDS011;14556;52.222;4.510;2022-11-20T00:03:47;13.17;;;6.97;;
27013;SDS011;14556;52.222;4.510;2022-11-20T00:06:15;15.77;;;8.17;;
27013;SDS011;14556;52.222;4.510;2022-11-20T00:08:43;12.83;;;7.33;;
27013;SDS011;14556;52.222;4.510;2022-11-20T00:11:12;16.57;;;7.50;;
27013;SDS011;14556;52.222;4.510;2022-11-20T00:13:45;12.33;;;7.20;;
27013;SDS011;14556;52.222;4.510;2022-11-20T00:16:14;14.63;;;7.80;;
27013;SDS011;14556;52.222;4.510;2022-11-20T00:18:42;11.97;;;6.57;;
27013;SDS011;14556;52.222;4.510;2022-11-20T00:21:11;12.67;;;6.83;;
27013;SDS011;14556;52.222;4.510;2022-11-20T00:23:39;12.73;;;7.63;;
27013;SDS011;14556;52.222;4.510;2022-11-20T00:26:06;11.90;;;6.60;;
27013;SDS011;14556;52.222;4.510;2022-11-20T00:28:34;14.37;;;7.43;;
27013;SDS011;14556;52.222;4.510;2022-11-20T00:31:07;13.63;;;7.83;;
27013;SDS011;14556;52.222;4.510;2022-11-20T00:33:35;13.00;;;6.77;;
27013;SDS011;14556;52.222;4.510;2022-11-20T00:36:04;14.00;;;8.10;;
27013;SDS011;14556;52.222;4.510;2022-11-20T00:38:32;12.87;;;6.97;;
27013;SDS011;14556;52.222;4.510;2022-11-20T00:41:00;13.30;;;6.77;;
27013;SDS011;14556;52.222;4.510;2022-11-20T00:43:29;10.33;;;6.87;;
27013;SDS011;14556;52.222;4.510;2022-11-20T00:45:56;11.03;;;6.57;;
27013;SDS011;14556;52.222;4.510;2022-11-20T00:48:23;10.33;;;6.13;;
27013;SDS011;14556;52.222;4.510;2022-11-20T00:50:50;13.77;;;6.63;;
27013;SDS011;14556;52.222;4.510;2022-11-20T00:53:17;10.27;;;6.10;;
27013;SDS011;14556;52.222;4.510;2022-11-20T00:55:51;10.20;;;6.30;;
27013;SDS011;14556;52.222;4.510;2022-11-20T00:58:19;11.83;;;6.53;;
27013;SDS011;14556;52.222;4.510;2022-11-20T01:00:45;12.13;;;6.80;;
27013;SDS011;14556;52.222;4.510;2022-11-20T01:03:12;12.13;;;6.60;;
27013;SDS011;14556;52.222;4.510;2022-11-20T01:05:38;12.67;;;5.90;;
27013;SDS011;14556;52.222;4.510;2022-11-20T01:08:04;12.07;;;6.70;;
27013;SDS011;14556;52.222;4.510;2022-11-20T01:10:32;10.27;;;6.60;;
27013;SDS011;14556;52.222;4.510;2022-11-20T01:12:58;10.00;;;5.60;;
27013;SDS011;14556;52.222;4.510;2022-11-20T01:15:50;9.67;;;6.47;;
27013;SDS011;14556;52.222;4.510;2022-11-20T01:18:17;13.90;;;6.97;;
27013;SDS011;14556;52.222;4.510;2022-11-20T01:20:43;12.93;;;6.63;;
27013;SDS011;14556;52.222;4.510;2022-11-20T01:23:11;11.33;;;6.77;;
27013;SDS011;14556;52.222;4.510;2022-11-20T01:25:37;13.10;;;6.47;;
27013;SDS011;14556;52.222;4.510;2022-11-20T01:28:04;11.80;;;6.57;;
27013;SDS011;14556;52.222;4.510;2022-11-20T01:30:30;11.53;;;6.00;;
27013;SDS011;14556;52.222;4.510;2022-11-20T01:32:56;10.60;;;6.03;;
27013;SDS011;14556;52.222;4.510;2022-11-20T01:35:23;12.20;;;6.30;;
27013;SDS011;14556;52.222;4.510;2022-11-20T01:37:50;13.50;;;6.67;;
27013;SDS011;14556;52.222;4.510;2022-11-20T01:40:16;11.30;;;6.30;;
27013;SDS011;14556;52.222;4.510;2022-11-20T01:42:52;13.00;;;6.87;;
27013;SDS011;14556;52.222;4.510;2022-11-20T01:51:14;10.63;;;6.37;;
27013;SDS011;14556;52.222;4.510;2022-11-20T01:53:50;11.77;;;6.13;;
27013;SDS011;14556;52.222;4.510;2022-11-20T01:56:20;11.73;;;6.43;;
27013;SDS011;14556;52.222;4.510;2022-11-20T01:58:48;10.43;;;6.27;;
27013;SDS011;14556;52.222;4.510;2022-11-20T02:01:20;12.70;;;6.83;;
27013;SDS011;14556;52.222;4.510;2022-11-20T02:03:47;11.83;;;5.60;;
27013;SDS011;14556;52.222;4.510;2022-11-20T02:06:16;15.03;;;7.17;;
27013;SDS011;14556;52.222;4.510;2022-11-20T02:08:49;15.50;;;7.13;;
27013;SDS011;14556;52.222;4.510;2022-11-20T02:11:16;12.60;;;6.40;;
27013;SDS011;14556;52.222;4.510;2022-11-20T02:13:43;12.50;;;6.93;;
27013;SDS011;14556;52.222;4.510;2022-11-20T02:18:51;10.90;;;6.17;;
27013;SDS011;14556;52.222;4.510;2022-11-20T02:24:26;11.80;;;6.20;;
27013;SDS011;14556;52.222;4.510;2022-11-20T02:27:03;14.53;;;6.77;;
27013;SDS011;14556;52.222;4.510;2022-11-20T02:29:33;11.67;;;6.53;;
27013;SDS011;14556;52.222;4.510;2022-11-20T02:32:04;11.07;;;6.03;;
27013;SDS011;14556;52.222;4.510;2022-11-20T02:34:30;14.03;;;6.50;;
27013;SDS011;14556;52.222;4.510;2022-11-20T02:36:57;11.20;;;6.17;;
27013;SDS011;14556;52.222;4.510;2022-11-20T02:39:26;12.77;;;6.83;;
27013;SDS011;14556;52.222;4.510;2022-11-20T02:41:54;13.80;;;6.73;;
27013;SDS011;14556;52.222;4.510;2022-11-20T02:44:23;14.00;;;7.10;;
27013;SDS011;14556;52.222;4.510;2022-11-20T02:46:49;11.40;;;6.67;;
27013;SDS011;14556;52.222;4.510;2022-11-20T02:49:16;11.43;;;6.13;;
27013;SDS011;14556;52.222;4.510;2022-11-20T02:51:43;12.33;;;6.93;;
27013;SDS011;14556;52.222;4.510;2022-11-20T02:54:10;11.20;;;6.83;;
27013;SDS011;14556;52.222;4.510;2022-11-20T02:56:37;11.77;;;6.70;;
27013;SDS011;14556;52.222;4.510;2022-11-20T02:59:04;14.10;;;6.67;;
27013;SDS011;14556;52.222;4.510;2022-11-20T03:01:31;13.93;;;6.70;;
27013;SDS011;14556;52.222;4.510;2022-11-20T03:03:58;13.57;;;7.27;;
27013;SDS011;14556;52.222;4.510;2022-11-20T03:06:24;20.70;;;7.63;;
27013;SDS011;14556;52.222;4.510;2022-11-20T03:08:51;13.43;;;6.80;;
27013;SDS011;14556;52.222;4.510;2022-11-20T03:11:17;13.07;;;6.80;;
27013;SDS011;14556;52.222;4.510;2022-11-20T03:13:44;10.57;;;6.40;;
27013;SDS011;14556;52.222;4.510;2022-11-20T03:16:12;12.07;;;6.50;;
27013;SDS011;14556;52.222;4.510;2022-11-20T03:18:40;11.13;;;6.30;;
27013;SDS011;14556;52.222;4.510;2022-11-20T03:21:08;14.33;;;6.83;;
27013;SDS011;14556;52.222;4.510;2022-11-20T03:23:36;11.40;;;6.50;;
27013;SDS011;14556;52.222;4.510;2022-11-20T03:26:10;14.33;;;7.40;;
27013;SDS011;14556;52.222;4.510;2022-11-20T03:28:38;13.50;;;6.40;;
27013;SDS011;14556;52.222;4.510;2022-11-20T03:31:06;10.73;;;6.53;;
27013;SDS011;14556;52.222;4.510;2022-11-20T03:33:34;14.67;;;6.90;;
27013;SDS011;14556;52.222;4.510;2022-11-20T03:36:01;13.87;;;6.80;;
27013;SDS011;14556;52.222;4.510;2022-11-20T03:38:31;14.03;;;7.33;;
27013;SDS011;14556;52.222;4.510;2022-11-20T03:40:59;12.73;;;6.37;;
27013;SDS011;14556;52.222;4.510;2022-11-20T03:43:32;14.47;;;7.53;;
27013;SDS011;14556;52.222;4.510;2022-11-20T03:45:59;13.77;;;6.70;;
27013;SDS011;14556;52.222;4.510;2022-11-20T03:48:26;14.37;;;7.63;;
27013;SDS011;14556;52.222;4.510;2022-11-20T03:50:54;10.47;;;6.50;;
27013;SDS011;14556;52.222;4.510;2022-11-20T03:53:35;12.97;;;6.67;;
27013;SDS011;14556;52.222;4.510;2022-11-20T03:56:02;11.50;;;7.33;;
27013;SDS011;14556;52.222;4.510;2022-11-20T03:58:28;13.30;;;6.33;;
27013;SDS011;14556;52.222;4.510;2022-11-20T04:00:55;14.23;;;7.00;;
27013;SDS011;14556;52.222;4.510;2022-11-20T04:03:22;12.93;;;7.27;;
27013;SDS011;14556;52.222;4.510;2022-11-20T04:05:48;15.83;;;7.77;;
27013;SDS011;14556;52.222;4.510;2022-11-20T04:08:14;12.60;;;6.97;;
27013;SDS011;14556;52.222;4.510;2022-11-20T04:10:41;11.33;;;6.13;;
27013;SDS011;14556;52.222;4.510;2022-11-20T04:13:07;12.87;;;6.87;;
27013;SDS011;14556;52.222;4.510;2022-11-20T04:15:34;15.70;;;7.77;;
27013;SDS011;14556;52.222;4.510;2022-11-20T04:18:03;16.37;;;7.00;;
27013;SDS011;14556;52.222;4.510;2022-11-20T04:20:30;11.23;;;6.67;;
27013;SDS011;14556;52.222;4.510;2022-11-20T04:22:56;11.03;;;6.27;;
27013;SDS011;14556;52.222;4.510;2022-11-20T04:25:23;14.90;;;6.97;;
27013;SDS011;14556;52.222;4.510;2022-11-20T04:27:49;11.83;;;6.67;;
27013;SDS011;14556;52.222;4.510;2022-11-20T04:30:15;14.70;;;6.60;;
27013;SDS011;14556;52.222;4.510;2022-11-20T04:32:42;12.77;;;7.37;;
27013;SDS011;14556;52.222;4.510;2022-11-20T04:35:08;12.33;;;6.60;;
27013;SDS011;14556;52.222;4.510;2022-11-20T04:37:35;14.77;;;6.93;;
27013;SDS011;14556;52.222;4.510;2022-11-20T04:40:01;15.63;;;8.07;;
27013;SDS011;14556;52.222;4.510;2022-11-20T04:42:28;12.47;;;7.03;;
27013;SDS011;14556;52.222;4.510;2022-11-20T04:44:54;11.47;;;7.30;;
27013;SDS011;14556;52.222;4.510;2022-11-20T04:47:21;13.30;;;7.47;;
27013;SDS011;14556;52.222;4.510;2022-11-20T04:49:48;13.57;;;7.00;;
27013;SDS011;14556;52.222;4.510;2022-11-20T04:52:14;12.00;;;7.17;;
27013;SDS011;14556;52.222;4.510;2022-11-20T04:54:41;10.37;;;6.30;;
27013;SDS011;14556;52.222;4.510;2022-11-20T04:57:07;10.97;;;6.23;;
27013;SDS011;14556;52.222;4.510;2022-11-20T04:59:39;11.80;;;6.43;;
27013;SDS011;14556;52.222;4.510;2022-11-20T05:02:06;16.00;;;7.20;;
27013;SDS011;14556;52.222;4.510;2022-11-20T05:04:32;14.20;;;7.17;;
27013;SDS011;14556;52.222;4.510;2022-11-20T05:06:59;13.63;;;7.47;;
27013;SDS011;14556;52.222;4.510;2022-11-20T05:09:25;13.13;;;7.83;;
27013;SDS011;14556;52.222;4.510;2022-11-20T05:11:52;16.90;;;7.33;;
27013;SDS011;14556;52.222;4.510;2022-11-20T05:14:18;14.33;;;6.30;;
27013;SDS011;14556;52.222;4.510;2022-11-20T05:16:45;14.10;;;6.50;;
27013;SDS011;14556;52.222;4.510;2022-11-20T05:19:11;12.73;;;7.27;;
27013;SDS011;14556;52.222;4.510;2022-11-20T05:21:38;18.67;;;7.80;;
27013;SDS011;14556;52.222;4.510;2022-11-20T05:24:04;11.40;;;6.23;;
27013;SDS011;14556;52.222;4.510;2022-11-20T05:26:31;13.73;;;6.30;;
27013;SDS011;14556;52.222;4.510;2022-11-20T05:28:58;15.47;;;7.47;;
27013;SDS011;14556;52.222;4.510;2022-11-20T05:31:25;11.03;;;6.57;;
27013;SDS011;14556;52.222;4.510;2022-11-20T05:33:53;12.40;;;6.77;;
27013;SDS011;14556;52.222;4.510;2022-11-20T05:36:21;14.20;;;7.80;;
27013;SDS011;14556;52.222;4.510;2022-11-20T05:38:47;14.67;;;7.30;;
27013;SDS011;14556;52.222;4.510;2022-11-20T05:41:17;12.53;;;6.80;;
27013;SDS011;14556;52.222;4.510;2022-11-20T05:43:45;12.10;;;7.50;;
27013;SDS011;14556;52.222;4.510;2022-11-20T05:46:14;12.20;;;6.93;;
27013;SDS011;14556;52.222;4.510;2022-11-20T05:48:42;12.77;;;7.30;;
27013;SDS011;14556;52.222;4.510;2022-11-20T05:51:10;12.27;;;6.97;;
27013;SDS011;14556;52.222;4.510;2022-11-20T05:53:38;11.77;;;6.77;;
27013;SDS011;14556;52.222;4.510;2022-11-20T05:56:13;14.77;;;7.33;;
27013;SDS011;14556;52.222;4.510;2022-11-20T05:58:41;16.83;;;6.93;;
27013;SDS011;14556;52.222;4.510;2022-11-20T06:01:15;15.63;;;8.23;;
27013;SDS011;14556;52.222;4.510;2022-11-20T06:03:44;12.93;;;6.93;;
27013;SDS011;14556;52.222;4.510;2022-11-20T06:06:14;12.93;;;7.33;;
27013;SDS011;14556;52.222;4.510;2022-11-20T06:08:41;14.57;;;7.70;;
27013;SDS011;14556;52.222;4.510;2022-11-20T06:11:08;17.80;;;8.00;;
27013;SDS011;14556;52.222;4.510;2022-11-20T06:13:36;12.67;;;6.47;;
27013;SDS011;14556;52.222;4.510;2022-11-20T06:16:08;11.37;;;7.07;;
27013;SDS011;14556;52.222;4.510;2022-11-20T06:18:35;17.10;;;7.67;;
27013;SDS011;14556;52.222;4.510;2022-11-20T06:21:05;16.13;;;8.30;;
27013;SDS011;14556;52.222;4.510;2022-11-20T06:23:34;13.30;;;7.53;;
27013;SDS011;14556;52.222;4.510;2022-11-20T06:26:11;14.33;;;7.33;;
27013;SDS011;14556;52.222;4.510;2022-11-20T06:28:40;15.20;;;7.37;;
27013;SDS011;14556;52.222;4.510;2022-11-20T06:31:09;12.13;;;7.00;;
27013;SDS011;14556;52.222;4.510;2022-11-20T06:33:37;16.53;;;7.67;;
27013;SDS011;14556;52.222;4.510;2022-11-20T06:36:04;16.40;;;7.77;;
27013;SDS011;14556;52.222;4.510;2022-11-20T06:38:36;12.17;;;7.47;;
27013;SDS011;14556;52.222;4.510;2022-11-20T06:41:04;13.50;;;7.57;;
27013;SDS011;14556;52.222;4.510;2022-11-20T06:43:32;14.63;;;7.40;;
27013;SDS011;14556;52.222;4.510;2022-11-20T06:45:58;17.53;;;8.33;;
27013;SDS011;14556;52.222;4.510;2022-11-20T06:48:26;14.07;;;7.73;;
27013;SDS011;14556;52.222;4.510;2022-11-20T06:50:53;17.40;;;8.93;;
27013;SDS011;14556;52.222;4.510;2022-11-20T06:53:20;14.47;;;7.90;;
27013;SDS011;14556;52.222;4.510;2022-11-20T06:55:47;14.97;;;7.77;;
27013;SDS011;14556;52.222;4.510;2022-11-20T06:58:15;14.83;;;7.43;;
27013;SDS011;14556;52.222;4.510;2022-11-20T07:00:41;13.90;;;8.43;;
27013;SDS011;14556;52.222;4.510;2022-11-20T07:03:09;16.90;;;8.27;;
27013;SDS011;14556;52.222;4.510;2022-11-20T07:05:37;14.53;;;7.90;;
27013;SDS011;14556;52.222;4.510;2022-11-20T07:08:04;16.80;;;7.63;;
27013;SDS011;14556;52.222;4.510;2022-11-20T07:10:31;14.93;;;7.07;;
27013;SDS011;14556;52.222;4.510;2022-11-20T07:12:58;14.87;;;7.80;;
27013;SDS011;14556;52.222;4.510;2022-11-20T07:15:25;13.20;;;8.13;;
27013;SDS011;14556;52.222;4.510;2022-11-20T07:17:52;17.37;;;7.20;;
27013;SDS011;14556;52.222;4.510;2022-11-20T07:20:18;12.77;;;7.83;;
27013;SDS011;14556;52.222;4.510;2022-11-20T07:22:45;14.13;;;8.07;;
27013;SDS011;14556;52.222;4.510;2022-11-20T07:25:11;15.03;;;8.40;;
27013;SDS011;14556;52.222;4.510;2022-11-20T07:27:38;14.87;;;7.53;;
27013;SDS011;14556;52.222;4.510;2022-11-20T07:30:04;14.53;;;8.07;;
27013;SDS011;14556;52.222;4.510;2022-11-20T07:32:31;16.50;;;8.03;;
27013;SDS011;14556;52.222;4.510;2022-11-20T07:34:58;16.70;;;8.17;;
27013;SDS011;14556;52.222;4.510;2022-11-20T07:37:24;15.47;;;8.20;;
27013;SDS011;14556;52.222;4.510;2022-11-20T07:39:51;14.20;;;7.97;;
27013;SDS011;14556;52.222;4.510;2022-11-20T07:42:17;16.47;;;8.60;;
27013;SDS011;14556;52.222;4.510;2022-11-20T07:44:44;16.00;;;7.13;;
27013;SDS011;14556;52.222;4.510;2022-11-20T07:47:10;14.40;;;7.90;;
27013;SDS011;14556;52.222;4.510;2022-11-20T07:49:37;16.77;;;8.97;;
27013;SDS011;14556;52.222;4.510;2022-11-20T07:52:03;15.17;;;8.17;;
27013;SDS011;14556;52.222;4.510;2022-11-20T07:54:30;16.10;;;9.00;;
27013;SDS011;14556;52.222;4.510;2022-11-20T07:56:57;19.80;;;8.63;;
27013;SDS011;14556;52.222;4.510;2022-11-20T07:59:23;17.10;;;8.83;;
27013;SDS011;14556;52.222;4.510;2022-11-20T08:01:49;13.13;;;8.13;;
27013;SDS011;14556;52.222;4.510;2022-11-20T08:04:16;17.13;;;8.57;;
27013;SDS011;14556;52.222;4.510;2022-11-20T08:06:42;15.17;;;8.70;;
27013;SDS011;14556;52.222;4.510;2022-11-20T08:09:09;14.37;;;7.07;;
27013;SDS011;14556;52.222;4.510;2022-11-20T08:11:35;15.53;;;8.00;;
27013;SDS011;14556;52.222;4.510;2022-11-20T08:14:20;17.20;;;8.60;;
27013;SDS011;14556;52.222;4.510;2022-11-20T08:16:47;19.83;;;8.97;;
27013;SDS011;14556;52.222;4.510;2022-11-20T08:19:16;16.50;;;7.83;;
27013;SDS011;14556;52.222;4.510;2022-11-20T08:21:44;19.83;;;9.17;;
27013;SDS011;14556;52.222;4.510;2022-11-20T08:24:10;19.37;;;9.70;;
27013;SDS011;14556;52.222;4.510;2022-11-20T08:26:38;19.90;;;8.70;;
27013;SDS011;14556;52.222;4.510;2022-11-20T08:29:05;18.53;;;9.10;;
27013;SDS011;14556;52.222;4.510;2022-11-20T08:31:32;16.70;;;9.33;;
27013;SDS011;14556;52.222;4.510;2022-11-20T08:33:59;20.37;;;9.80;;
27013;SDS011;14556;52.222;4.510;2022-11-20T08:36:32;16.77;;;8.73;;
27013;SDS011;14556;52.222;4.510;2022-11-20T08:39:00;18.17;;;8.30;;
27013;SDS011;14556;52.222;4.510;2022-11-20T08:41:26;15.83;;;8.50;;
27013;SDS011;14556;52.222;4.510;2022-11-20T08:44:00;16.50;;;9.80;;
27013;SDS011;14556;52.222;4.510;2022-11-20T08:46:31;19.97;;;10.23;;
27013;SDS011;14556;52.222;4.510;2022-11-20T08:48:59;17.90;;;8.83;;
27013;SDS011;14556;52.222;4.510;2022-11-20T08:51:26;20.67;;;10.47;;
27013;SDS011;14556;52.222;4.510;2022-11-20T08:53:52;16.57;;;8.73;;
27013;SDS011;14556;52.222;4.510;2022-11-20T08:56:19;17.33;;;9.43;;
27013;SDS011;14556;52.222;4.510;2022-11-20T08:58:46;19.20;;;9.97;;
27013;SDS011;14556;52.222;4.510;2022-11-20T09:01:32;22.17;;;11.60;;
27013;SDS011;14556;52.222;4.510;2022-11-20T09:03:58;17.00;;;8.33;;
27013;SDS011;14556;52.222;4.510;2022-11-20T09:06:26;23.10;;;11.03;;
27013;SDS011;14556;52.222;4.510;2022-11-20T09:08:52;18.53;;;10.10;;
27013;SDS011;14556;52.222;4.510;2022-11-20T09:11:21;22.67;;;11.50;;
27013;SDS011;14556;52.222;4.510;2022-11-20T09:13:48;19.27;;;10.47;;
27013;SDS011;14556;52.222;4.510;2022-11-20T09:16:15;17.67;;;9.67;;
27013;SDS011;14556;52.222;4.510;2022-11-20T09:18:41;21.97;;;9.97;;
27013;SDS011;14556;52.222;4.510;2022-11-20T09:21:11;20.17;;;10.20;;
27013;SDS011;14556;52.222;4.510;2022-11-20T09:23:40;17.43;;;10.10;;
27013;SDS011;14556;52.222;4.510;2022-11-20T09:26:10;23.30;;;11.43;;
27013;SDS011;14556;52.222;4.510;2022-11-20T09:28:38;19.07;;;11.40;;
27013;SDS011;14556;52.222;4.510;2022-11-20T09:31:05;21.77;;;11.13;;
27013;SDS011;14556;52.222;4.510;2022-11-20T09:33:33;23.23;;;12.10;;
27013;SDS011;14556;52.222;4.510;2022-11-20T09:35:59;22.27;;;10.97;;
27013;SDS011;14556;52.222;4.510;2022-11-20T09:38:26;21.90;;;11.00;;
27013;SDS011;14556;52.222;4.510;2022-11-20T09:40:55;22.37;;;11.30;;
27013;SDS011;14556;52.222;4.510;2022-11-20T09:49:30;23.10;;;11.60;;
27013;SDS011;14556;52.222;4.510;2022-11-20T09:54:29;23.97;;;12.63;;
27013;SDS011;14556;52.222;4.510;2022-11-20T09:56:59;20.87;;;10.73;;
27013;SDS011;14556;52.222;4.510;2022-11-20T10:00:00;23.33;;;12.43;;
27013;SDS011;14556;52.222;4.510;2022-11-20T10:02:39;26.07;;;13.23;;
27013;SDS011;14556;52.222;4.510;2022-11-20T10:05:25;25.03;;;12.23;;
27013;SDS011;14556;52.222;4.510;2022-11-20T10:10:42;23.80;;;12.80;;
27013;SDS011;14556;52.222;4.510;2022-11-20T10:13:28;29.83;;;14.67;;
27013;SDS011;14556;52.222;4.510;2022-11-20T10:24:28;26.17;;;11.63;;
27013;SDS011;14556;52.222;4.510;2022-11-20T10:27:14;25.10;;;12.90;;
27013;SDS011;14556;52.222;4.510;2022-11-20T10:30:10;23.47;;;12.30;;
27013;SDS011;14556;52.222;4.510;2022-11-20T10:32:40;25.27;;;12.20;;
27013;SDS011;14556;52.222;4.510;2022-11-20T10:37:52;20.97;;;12.00;;
27013;SDS011;14556;52.222;4.510;2022-11-20T10:43:09;23.60;;;12.63;;
27013;SDS011;14556;52.222;4.510;2022-11-20T10:45:51;23.87;;;11.53;;
27013;SDS011;14556;52.222;4.510;2022-11-20T10:48:22;26.60;;;13.67;;
27013;SDS011;14556;52.222;4.510;2022-11-20T10:53:46;29.43;;;15.17;;
27013;SDS011;14556;52.222;4.510;2022-11-20T10:56:46;25.83;;;14.30;;
27013;SDS011;14556;52.222;4.510;2022-11-20T11:02:16;28.77;;;16.17;;
27013;SDS011;14556;52.222;4.510;2022-11-20T11:04:44;31.67;;;16.60;;
27013;SDS011;14556;52.222;4.510;2022-11-20T11:10:05;28.47;;;13.63;;
27013;SDS011;14556;52.222;4.510;2022-11-20T11:12:45;31.47;;;15.40;;
27013;SDS011;14556;52.222;4.510;2022-11-20T11:15:24;27.07;;;13.87;;
27013;SDS011;14556;52.222;4.510;2022-11-20T11:17:53;31.30;;;15.43;;
27013;SDS011;14556;52.222;4.510;2022-11-20T11:20:23;29.60;;;15.50;;
27013;SDS011;14556;52.222;4.510;2022-11-20T11:22:52;26.57;;;12.40;;
27013;SDS011;14556;52.222;4.510;2022-11-20T11:25:22;39.80;;;16.37;;
27013;SDS011;14556;52.222;4.510;2022-11-20T11:27:55;28.00;;;14.73;;
27013;SDS011;14556;52.222;4.510;2022-11-20T11:30:28;30.60;;;14.17;;
27013;SDS011;14556;52.222;4.510;2022-11-20T11:33:04;33.93;;;18.40;;
27013;SDS011;14556;52.222;4.510;2022-11-20T11:35:43;28.87;;;14.17;;
27013;SDS011;14556;52.222;4.510;2022-11-20T11:38:17;33.97;;;15.80;;
27013;SDS011;14556;52.222;4.510;2022-11-20T11:40:48;33.80;;;16.07;;
27013;SDS011;14556;52.222;4.510;2022-11-20T11:43:21;33.53;;;16.60;;
27013;SDS011;14556;52.222;4.510;2022-11-20T11:49:01;30.47;;;16.07;;
27013;SDS011;14556;52.222;4.510;2022-11-20T11:51:40;32.80;;;16.17;;
27013;SDS011;14556;52.222;4.510;2022-11-20T11:54:15;33.70;;;15.60;;
27013;SDS011;14556;52.222;4.510;2022-11-20T11:56:46;33.07;;;15.60;;
27013;SDS011;14556;52.222;4.510;2022-11-20T11:59:15;36.87;;;16.33;;
27013;SDS011;14556;52.222;4.510;2022-11-20T12:01:53;32.77;;;16.07;;
27013;SDS011;14556;52.222;4.510;2022-11-20T12:04:46;38.27;;;17.90;;
27013;SDS011;14556;52.222;4.510;2022-11-20T12:10:14;45.00;;;21.00;;
27013;SDS011;14556;52.222;4.510;2022-11-20T12:13:04;44.50;;;18.67;;
27013;SDS011;14556;52.222;4.510;2022-11-20T12:15:42;46.00;;;19.83;;
27013;SDS011;14556;52.222;4.510;2022-11-20T12:18:14;46.33;;;20.60;;
27013;SDS011;14556;52.222;4.510;2022-11-20T12:20:54;50.60;;;20.30;;
27013;SDS011;14556;52.222;4.510;2022-11-20T12:23:42;43.10;;;20.17;;
27013;SDS011;14556;52.222;4.510;2022-11-20T12:26:31;50.17;;;20.90;;
27013;SDS011;14556;52.222;4.510;2022-11-20T12:29:28;52.23;;;19.37;;
27013;SDS011;14556;52.222;4.510;2022-11-20T12:34:42;42.47;;;19.20;;
27013;SDS011;14556;52.222;4.510;2022-11-20T12:40:40;40.10;;;18.97;;
27013;SDS011;14556;52.222;4.510;2022-11-20T12:43:28;43.37;;;17.60;;
27013;SDS011;14556;52.222;4.510;2022-11-20T12:46:37;36.60;;;16.53;;
27013;SDS011;14556;52.222;4.510;2022-11-20T12:51:58;49.53;;;20.10;;
27013;SDS011;14556;52.222;4.510;2022-11-20T13:00:21;43.07;;;19.33;;
27013;SDS011;14556;52.222;4.510;2022-11-20T13:08:03;37.47;;;16.57;;
27013;SDS011;14556;52.222;4.510;2022-11-20T13:10:43;49.47;;;20.30;;
27013;SDS011;14556;52.222;4.510;2022-11-20T13:16:04;49.70;;;20.70;;
27013;SDS011;14556;52.222;4.510;2022-11-20T13:18:36;43.40;;;19.33;;
27013;SDS011;14556;52.222;4.510;2022-11-20T13:21:19;48.30;;;21.33;;
27013;SDS011;14556;52.222;4.510;2022-11-20T13:23:46;50.20;;;22.00;;
27013;SDS011;14556;52.222;4.510;2022-11-20T13:26:14;55.70;;;22.63;;
27013;SDS011;14556;52.222;4.510;2022-11-20T13:31:45;63.97;;;25.37;;
27013;SDS011;14556;52.222;4.510;2022-11-20T13:34:25;57.33;;;22.20;;
27013;SDS011;14556;52.222;4.510;2022-11-20T13:36:54;44.07;;;19.30;;
27013;SDS011;14556;52.222;4.510;2022-11-20T13:39:25;51.27;;;22.70;;
27013;SDS011;14556;52.222;4.510;2022-11-20T13:41:59;55.30;;;22.30;;
27013;SDS011;14556;52.222;4.510;2022-11-20T13:44:53;44.10;;;21.27;;
27013;SDS011;14556;52.222;4.510;2022-11-20T13:47:25;61.00;;;23.77;;
27013;SDS011;14556;52.222;4.510;2022-11-20T13:49:53;49.63;;;22.43;;
27013;SDS011;14556;52.222;4.510;2022-11-20T14:00:43;59.30;;;23.17;;
27013;SDS011;14556;52.222;4.510;2022-11-20T14:03:30;56.07;;;22.43;;
27013;SDS011;14556;52.222;4.510;2022-11-20T14:08:53;39.70;;;17.57;;
27013;SDS011;14556;52.222;4.510;2022-11-20T14:11:23;45.60;;;21.13;;
27013;SDS011;14556;52.222;4.510;2022-11-20T14:16:33;54.90;;;22.60;;
27013;SDS011;14556;52.222;4.510;2022-11-20T14:19:19;49.83;;;22.53;;
27013;SDS011;14556;52.222;4.510;2022-11-20T14:21:49;56.97;;;21.93;;
27013;SDS011;14556;52.222;4.510;2022-11-20T14:24:18;60.23;;;22.77;;
27013;SDS011;14556;52.222;4.510;2022-11-20T14:26:47;57.93;;;21.17;;
27013;SDS011;14556;52.222;4.510;2022-11-20T14:29:14;50.50;;;22.33;;
27013;SDS011;14556;52.222;4.510;2022-11-20T14:31:44;55.93;;;20.70;;
27013;SDS011;14556;52.222;4.510;2022-11-20T14:34:19;57.10;;;24.87;;
27013;SDS011;14556;52.222;4.510;2022-11-20T14:37:01;55.07;;;23.30;;
27013;SDS011;14556;52.222;4.510;2022-11-20T14:39:35;57.43;;;22.67;;
27013;SDS011;14556;52.222;4.510;2022-11-20T14:42:03;58.37;;;22.17;;
27013;SDS011;14556;52.222;4.510;2022-11-20T14:44:41;49.67;;;22.50;;
27013;SDS011;14556;52.222;4.510;2022-11-20T14:47:09;51.33;;;22.83;;
27013;SDS011;14556;52.222;4.510;2022-11-20T14:49:38;50.13;;;19.37;;
27013;SDS011;14556;52.222;4.510;2022-11-20T14:52:11;62.30;;;22.93;;
27013;SDS011;14556;52.222;4.510;2022-11-20T14:54:47;65.03;;;22.30;;
27013;SDS011;14556;52.222;4.510;2022-11-20T14:57:30;58.90;;;22.57;;
27013;SDS011;14556;52.222;4.510;2022-11-20T15:02:33;60.40;;;23.60;;
27013;SDS011;14556;52.222;4.510;2022-11-20T15:05:00;44.67;;;19.03;;
27013;SDS011;14556;52.222;4.510;2022-11-20T15:07:35;53.93;;;22.97;;
27013;SDS011;14556;52.222;4.510;2022-11-20T15:10:04;65.60;;;25.80;;
27013;SDS011;14556;52.222;4.510;2022-11-20T15:12:34;69.93;;;26.37;;
27013;SDS011;14556;52.222;4.510;2022-11-20T15:15:03;65.00;;;25.87;;
27013;SDS011;14556;52.222;4.510;2022-11-20T15:17:32;62.63;;;24.27;;
27013;SDS011;14556;52.222;4.510;2022-11-20T15:20:03;62.00;;;26.33;;
27013;SDS011;14556;52.222;4.510;2022-11-20T15:22:37;67.07;;;26.53;;
27013;SDS011;14556;52.222;4.510;2022-11-20T15:25:13;56.27;;;24.50;;
27013;SDS011;14556;52.222;4.510;2022-11-20T15:27:41;67.77;;;26.67;;
27013;SDS011;14556;52.222;4.510;2022-11-20T15:30:12;62.73;;;25.97;;
27013;SDS011;14556;52.222;4.510;2022-11-20T15:32:41;69.13;;;27.67;;
27013;SDS011;14556;52.222;4.510;2022-11-20T15:35:08;57.60;;;24.27;;
27013;SDS011;14556;52.222;4.510;2022-11-20T15:37:38;63.97;;;27.93;;
27013;SDS011;14556;52.222;4.510;2022-11-20T15:40:05;60.87;;;26.10;;
27013;SDS011;14556;52.222;4.510;2022-11-20T15:42:33;60.47;;;25.47;;
27013;SDS011;14556;52.222;4.510;2022-11-20T15:45:00;58.17;;;25.50;;
27013;SDS011;14556;52.222;4.510;2022-11-20T15:47:28;64.03;;;26.67;;
27013;SDS011;14556;52.222;4.510;2022-11-20T15:49:57;61.90;;;26.40;;
27013;SDS011;14556;52.222;4.510;2022-11-20T15:52:23;67.73;;;26.77;;
27013;SDS011;14556;52.222;4.510;2022-11-20T15:54:50;57.43;;;23.63;;
27013;SDS011;14556;52.222;4.510;2022-11-20T15:57:16;62.37;;;24.43;;
27013;SDS011;14556;52.222;4.510;2022-11-20T15:59:43;65.90;;;24.77;;
27013;SDS011;14556;52.222;4.510;2022-11-20T16:02:13;58.07;;;22.57;;
27013;SDS011;14556;52.222;4.510;2022-11-20T16:04:44;59.80;;;23.87;;
27013;SDS011;14556;52.222;4.510;2022-11-20T16:07:11;52.97;;;23.87;;
27013;SDS011;14556;52.222;4.510;2022-11-20T16:09:38;56.27;;;25.57;;
27013;SDS011;14556;52.222;4.510;2022-11-20T16:12:05;57.07;;;23.03;;
27013;SDS011;14556;52.222;4.510;2022-11-20T16:14:32;55.80;;;22.80;;
27013;SDS011;14556;52.222;4.510;2022-11-20T16:17:16;50.47;;;21.80;;
27013;SDS011;14556;52.222;4.510;2022-11-20T16:20:03;58.80;;;24.07;;